Terminal Aerodrome Forecast
Issued by NWS

Home | Current Version | Previous Version | Text Only | Print | Product List | Glossary On
Versions: 1 2 3 4 5 6 7 8 9 10 11 12
000
FTUS42 TJSJ 022343
TAFJBQ
TAF
TJBQ 022343Z 0300/0324 VRB04KT P6SM SCT030 SCT080
     FM031430 08010KT P6SM VCSH SCT030 SCT040
     FM032330 12005KT P6SM SCT060
      AMD NOT SKED 0302/0311=

USA.gov is the U.S. government's official web portal to all federal, state and local government web resources and services.